Time;durP1;ratioP1;P1;durP2;ratioP2;P2;SDS_P1;SDS_P2;PMS_P1;PMS_P2;Temp;Humidity;BMP_temperature;BMP_pressure;BME280_temperature;BME280_humidity;BME280_pressure;Samples;Min_cycle;Max_cycle;Signal;HPM_P1;HPM_P2
2021/12/23 00:00:57;;;;;;;46.97;19.55;;;-1.70;99.90;;;;;;5019667;28;20033;-72
2021/12/23 00:03:23;;;;;;;48.35;18.27;;;-1.60;99.90;;;;;;5020097;28;20071;-73
2021/12/23 00:05:48;;;;;;;48.00;18.25;;;-1.60;99.90;;;;;;5020763;28;20026;-73
2021/12/23 00:08:14;;;;;;;49.90;19.38;;;-1.70;99.90;;;;;;5019918;28;20037;-72
2021/12/23 00:10:40;;;;;;;49.50;18.25;;;-1.70;99.90;;;;;;5020799;28;20120;-73
2021/12/23 00:13:07;;;;;;;51.70;19.50;;;-1.70;99.90;;;;;;5019489;28;20112;-73
2021/12/23 00:16:18;;;;;;;48.42;18.52;;;-1.70;99.90;;;;;;5019820;28;20025;-73
2021/12/23 00:23:24;;;;;;;49.55;18.83;;;-1.70;99.90;;;;;;5018018;28;20033;-73
2021/12/23 00:25:52;;;;;;;51.85;18.63;;;-1.80;99.90;;;;;;5019368;28;20375;-73
2021/12/23 00:28:18;;;;;;;45.20;18.88;;;-1.70;99.90;;;;;;5019984;28;20022;-73
2021/12/23 00:30:44;;;;;;;47.25;18.45;;;-1.70;99.90;;;;;;5020566;28;20578;-72
2021/12/23 00:33:10;;;;;;;48.33;17.85;;;-1.70;99.90;;;;;;5019235;28;20033;-72
2021/12/23 00:35:36;;;;;;;50.22;19.10;;;-1.70;99.90;;;;;;5017468;28;20048;-72
2021/12/23 00:38:09;;;;;;;49.13;18.75;;;-1.70;99.90;;;;;;5018844;28;20526;-72
2021/12/23 00:40:35;;;;;;;47.55;19.30;;;-1.70;99.90;;;;;;5019221;28;20129;-72
2021/12/23 00:43:01;;;;;;;45.42;19.80;;;-1.70;99.90;;;;;;5018001;28;20141;-72
2021/12/23 00:45:26;;;;;;;51.33;20.23;;;-1.70;99.90;;;;;;5019173;28;20029;-72
2021/12/23 00:47:52;;;;;;;43.25;17.77;;;-1.70;99.90;;;;;;5018833;28;20021;-73
2021/12/23 00:50:18;;;;;;;51.58;19.88;;;-1.70;99.90;;;;;;5020414;28;20037;-72
2021/12/23 00:52:43;;;;;;;43.58;16.98;;;-1.70;99.90;;;;;;5020492;28;20022;-73
2021/12/23 00:55:11;;;;;;;47.88;19.33;;;-1.70;99.90;;;;;;5018668;28;20041;-73
2021/12/23 00:57:39;;;;;;;47.55;18.42;;;-1.70;99.90;;;;;;5017152;28;20028;-73
2021/12/23 01:00:12;;;;;;;46.63;19.38;;;-1.70;99.90;;;;;;5020186;28;20033;-73
2021/12/23 01:02:43;;;;;;;42.58;17.42;;;-1.70;99.90;;;;;;5018044;28;20483;-73
2021/12/23 01:05:09;;;;;;;46.47;18.67;;;-1.70;99.90;;;;;;5020221;28;20033;-73
2021/12/23 01:07:35;;;;;;;44.35;17.75;;;-1.70;99.90;;;;;;5017027;28;20049;-73
2021/12/23 01:10:00;;;;;;;42.92;16.63;;;-1.70;99.90;;;;;;5020951;28;20029;-73
2021/12/23 01:12:32;;;;;;;46.95;19.95;;;-1.60;99.90;;;;;;5020738;28;20598;-73
2021/12/23 01:15:38;;;;;;;45.28;17.85;;;-1.60;99.90;;;;;;5017822;28;20417;-73
2021/12/23 01:18:09;;;;;;;45.90;17.33;;;-1.60;99.90;;;;;;5019587;28;20041;-73
2021/12/23 01:20:39;;;;;;;46.55;17.10;;;-1.70;99.90;;;;;;5019107;28;20032;-73
2021/12/23 01:23:08;;;;;;;43.35;17.60;;;-1.60;99.90;;;;;;5019744;28;20088;-73
2021/12/23 01:25:38;;;;;;;45.42;18.30;;;-1.60;99.90;;;;;;5018853;28;20495;-73
2021/12/23 01:28:06;;;;;;;47.58;17.90;;;-1.50;99.90;;;;;;5020146;28;20058;-73
2021/12/23 01:30:32;;;;;;;47.03;18.20;;;-1.60;99.90;;;;;;5020836;28;20034;-73
2021/12/23 01:32:58;;;;;;;42.45;16.85;;;-1.60;99.90;;;;;;5019747;28;20071;-73
2021/12/23 01:35:26;;;;;;;41.10;17.65;;;-1.60;99.90;;;;;;5018903;28;20073;-73
2021/12/23 01:37:52;;;;;;;40.40;15.57;;;-1.60;99.90;;;;;;5019373;28;20576;-73
2021/12/23 01:40:20;;;;;;;43.08;17.48;;;-1.50;99.90;;;;;;5018627;28;20028;-73
2021/12/23 01:42:46;;;;;;;41.35;16.52;;;-1.50;99.90;;;;;;5018779;28;20241;-73
2021/12/23 01:45:15;;;;;;;37.42;15.25;;;-1.50;99.90;;;;;;5019798;28;20033;-73
2021/12/23 01:47:42;;;;;;;37.47;15.43;;;-1.50;99.90;;;;;;5020540;28;20032;-73
2021/12/23 01:50:10;;;;;;;38.65;15.35;;;-1.50;99.90;;;;;;5018079;28;20515;-73
2021/12/23 01:52:38;;;;;;;41.33;16.50;;;-1.50;99.90;;;;;;5017930;28;20040;-73
2021/12/23 01:55:05;;;;;;;37.65;15.30;;;-1.50;99.90;;;;;;5016276;28;20490;-73
2021/12/23 01:57:32;;;;;;;40.60;16.45;;;-1.50;99.90;;;;;;5019977;28;20261;-73
2021/12/23 01:59:59;;;;;;;40.53;16.73;;;-1.50;99.90;;;;;;5019353;28;20064;-73
2021/12/23 02:02:25;;;;;;;42.63;17.20;;;-1.50;99.90;;;;;;5019753;28;20080;-73
2021/12/23 02:04:52;;;;;;;36.92;17.02;;;-1.50;99.90;;;;;;5021884;28;20377;-73
2021/12/23 02:07:18;;;;;;;34.35;14.43;;;-1.50;99.90;;;;;;5023664;28;20057;-73
2021/12/23 02:09:44;;;;;;;44.05;17.15;;;-1.50;99.90;;;;;;5023343;28;20026;-73
2021/12/23 02:12:10;;;;;;;37.17;14.43;;;-1.40;99.90;;;;;;5023836;28;20044;-73
2021/12/23 02:14:35;;;;;;;32.40;14.55;;;-1.50;99.90;;;;;;5024522;28;20103;-73
2021/12/23 02:17:01;;;;;;;35.63;14.68;;;-1.40;99.90;;;;;;5023020;28;20029;-73
2021/12/23 02:19:27;;;;;;;41.38;16.10;;;-1.40;99.90;;;;;;5024082;28;20026;-73
2021/12/23 02:21:53;;;;;;;39.75;16.95;;;-1.40;99.90;;;;;;5022925;28;20044;-73
2021/12/23 02:24:19;;;;;;;37.92;15.65;;;-1.40;99.90;;;;;;5023776;28;20025;-73
2021/12/23 02:26:44;;;;;;;39.20;16.30;;;-1.40;99.90;;;;;;5023721;28;20511;-73
2021/12/23 02:29:10;;;;;;;38.78;15.25;;;-1.40;99.90;;;;;;5023240;28;20034;-73
2021/12/23 02:31:36;;;;;;;33.67;15.30;;;-1.30;99.90;;;;;;5020744;28;20167;-73
2021/12/23 02:34:03;;;;;;;35.75;15.23;;;-1.40;99.90;;;;;;5022812;28;20123;-73
2021/12/23 02:36:30;;;;;;;34.15;15.63;;;-1.40;99.90;;;;;;5021095;28;20030;-73
2021/12/23 02:38:57;;;;;;;35.78;15.45;;;-1.40;99.90;;;;;;5022591;28;20072;-73
2021/12/23 02:41:23;;;;;;;36.50;14.93;;;-1.30;99.90;;;;;;5022548;28;20018;-73
2021/12/23 02:43:49;;;;;;;35.28;15.25;;;-1.30;99.90;;;;;;5022189;28;20025;-73
2021/12/23 02:46:18;;;;;;;36.25;16.17;;;-1.30;99.90;;;;;;5022179;28;20029;-73
2021/12/23 02:48:44;;;;;;;34.28;15.23;;;-1.30;99.90;;;;;;5019136;28;20109;-73
2021/12/23 02:51:12;;;;;;;35.45;15.45;;;-1.30;99.90;;;;;;5023008;28;20033;-73
2021/12/23 02:53:39;;;;;;;40.13;16.90;;;-1.30;99.90;;;;;;5020660;28;20050;-72
2021/12/23 02:56:08;;;;;;;35.22;15.65;;;-1.30;99.90;;;;;;5022585;28;20111;-72
2021/12/23 02:58:34;;;;;;;35.03;15.25;;;-1.20;99.90;;;;;;5022995;28;20029;-73
2021/12/23 03:01:04;;;;;;;36.22;15.38;;;-1.20;99.90;;;;;;5020948;28;20033;-73
2021/12/23 03:03:30;;;;;;;31.77;14.37;;;-1.20;99.90;;;;;;5022568;28;20035;-73
2021/12/23 03:05:58;;;;;;;36.33;15.05;;;-1.20;99.90;;;;;;5023055;28;20021;-73
2021/12/23 03:08:45;;;;;;;32.75;14.20;;;-1.30;99.90;;;;;;5021654;28;20053;-73
2021/12/23 03:11:15;;;;;;;34.97;15.60;;;-1.30;99.90;;;;;;5021145;28;20030;-73
2021/12/23 03:13:41;;;;;;;34.13;15.13;;;-1.30;99.90;;;;;;5022107;28;20033;-73
2021/12/23 03:16:07;;;;;;;34.33;14.65;;;-1.30;99.90;;;;;;5023596;28;20041;-73
2021/12/23 03:18:34;;;;;;;34.00;15.35;;;-1.30;99.90;;;;;;5021150;28;20559;-73
2021/12/23 03:21:01;;;;;;;32.72;14.45;;;-1.30;99.90;;;;;;5019097;28;20031;-73
2021/12/23 03:23:27;;;;;;;31.77;15.07;;;-1.30;99.90;;;;;;5022027;28;20029;-73
2021/12/23 03:25:53;;;;;;;35.35;14.70;;;-1.20;99.90;;;;;;5020698;28;20556;-73
2021/12/23 03:28:19;;;;;;;39.00;14.90;;;-1.20;99.90;;;;;;5020640;28;20033;-73
2021/12/23 03:30:45;;;;;;;36.28;16.05;;;-1.20;99.90;;;;;;5018755;28;20130;-73
2021/12/23 03:33:11;;;;;;;33.33;14.20;;;-1.30;99.90;;;;;;5022474;28;20091;-73
2021/12/23 03:35:37;;;;;;;31.85;15.35;;;-1.20;99.90;;;;;;5022253;28;20025;-73
2021/12/23 03:38:04;;;;;;;32.53;13.90;;;-1.30;99.90;;;;;;5019218;28;20034;-73
2021/12/23 03:40:30;;;;;;;30.33;13.85;;;-1.30;99.90;;;;;;5020156;28;20045;-73
2021/12/23 03:42:56;;;;;;;36.42;14.88;;;-1.30;99.90;;;;;;5018120;28;20030;-73
2021/12/23 03:45:22;;;;;;;32.83;15.88;;;-1.30;99.90;;;;;;5022435;28;20029;-73
2021/12/23 03:47:48;;;;;;;35.40;14.95;;;-1.30;99.90;;;;;;5018894;28;20030;-73
2021/12/23 03:50:19;;;;;;;33.13;14.52;;;-1.30;99.90;;;;;;5021814;28;20029;-73
2021/12/23 03:52:45;;;;;;;32.92;14.45;;;-1.30;99.90;;;;;;5019816;28;20080;-73
2021/12/23 03:55:12;;;;;;;31.90;15.05;;;-1.30;99.90;;;;;;5018176;28;20026;-73
2021/12/23 03:57:39;;;;;;;30.00;14.43;;;-1.30;99.90;;;;;;5019272;28;20037;-73
2021/12/23 04:00:07;;;;;;;36.10;15.35;;;-1.30;99.90;;;;;;5020952;28;20038;-73
2021/12/23 04:02:34;;;;;;;33.58;15.15;;;-1.30;99.90;;;;;;5021284;28;20124;-73
2021/12/23 04:04:59;;;;;;;33.25;14.52;;;-1.30;99.90;;;;;;5020625;28;20538;-73
2021/12/23 04:07:25;;;;;;;37.42;15.18;;;-1.30;99.90;;;;;;5042333;28;20125;-73
2021/12/23 04:09:51;;;;;;;35.92;15.48;;;-1.30;99.90;;;;;;5020847;28;20410;-73
2021/12/23 04:12:16;;;;;;;35.90;16.20;;;-1.30;99.90;;;;;;5019806;28;20037;-73
2021/12/23 04:14:42;;;;;;;38.45;15.27;;;-1.40;99.90;;;;;;5019084;28;20507;-73
2021/12/23 04:17:08;;;;;;;32.42;14.52;;;-1.40;99.90;;;;;;5021054;28;20037;-73
2021/12/23 04:19:33;;;;;;;35.13;15.38;;;-1.40;99.90;;;;;;5021336;28;20392;-73
2021/12/23 04:22:00;;;;;;;35.78;15.10;;;-1.40;99.90;;;;;;5044659;22;20069;-70
2021/12/23 04:24:27;;;;;;;40.47;15.50;;;-1.30;99.90;;;;;;5021878;28;20021;-70
2021/12/23 04:26:53;;;;;;;39.92;15.80;;;-1.30;99.90;;;;;;5019949;28;20037;-71
2021/12/23 04:29:19;;;;;;;38.55;16.45;;;-1.30;99.90;;;;;;5023773;28;20044;-70
2021/12/23 04:31:44;;;;;;;36.13;15.23;;;-1.40;99.90;;;;;;5021111;28;20034;-70
2021/12/23 04:34:10;;;;;;;33.28;15.48;;;-1.40;99.90;;;;;;5017849;28;20030;-70
2021/12/23 04:36:36;;;;;;;35.92;15.27;;;-1.40;99.90;;;;;;5019643;28;20033;-70
2021/12/23 04:39:04;;;;;;;32.47;14.52;;;-1.40;99.90;;;;;;5025996;28;20033;-70
2021/12/23 04:41:31;;;;;;;34.10;13.63;;;-1.40;99.90;;;;;;5030456;28;20100;-71
2021/12/23 04:43:57;;;;;;;32.13;14.15;;;-1.30;99.90;;;;;;5027294;28;20029;-70
2021/12/23 04:46:23;;;;;;;34.50;15.57;;;-1.40;99.90;;;;;;5027486;28;20052;-70
2021/12/23 04:48:49;;;;;;;32.75;14.32;;;-1.30;99.90;;;;;;5021702;28;20025;-70
2021/12/23 04:51:15;;;;;;;36.08;15.27;;;-1.30;99.90;;;;;;5025425;28;20033;-69
2021/12/23 04:53:44;;;;;;;34.85;15.18;;;-1.30;99.90;;;;;;5019885;28;20041;-69
2021/12/23 04:56:11;;;;;;;33.53;14.30;;;-1.20;99.90;;;;;;5029232;28;20083;-71
2021/12/23 04:58:36;;;;;;;31.67;14.98;;;-1.20;99.90;;;;;;5030837;28;20033;-70
2021/12/23 05:01:04;;;;;;;32.90;14.27;;;-1.20;99.90;;;;;;5028273;28;20029;-70
2021/12/23 05:03:29;;;;;;;35.13;14.85;;;-1.20;99.90;;;;;;5022982;28;20038;-70
2021/12/23 05:05:55;;;;;;;30.20;14.75;;;-1.20;99.90;;;;;;5019501;28;20040;-70
2021/12/23 05:08:21;;;;;;;34.97;14.82;;;-1.10;99.90;;;;;;5028684;28;20036;-70
2021/12/23 05:10:47;;;;;;;31.75;14.13;;;-1.10;99.90;;;;;;5026028;28;20526;-70
2021/12/23 05:13:13;;;;;;;32.47;14.32;;;-1.20;99.90;;;;;;5026291;28;20033;-70
2021/12/23 05:15:39;;;;;;;32.95;14.82;;;-1.20;99.90;;;;;;5021988;28;20112;-70
2021/12/23 05:18:06;;;;;;;35.45;14.80;;;-1.10;99.90;;;;;;5022090;28;20058;-70
2021/12/23 05:20:32;;;;;;;32.47;14.35;;;-1.10;99.90;;;;;;5024314;28;20053;-70
2021/12/23 05:22:58;;;;;;;34.70;15.38;;;-1.10;99.90;;;;;;5024609;28;20058;-70
2021/12/23 05:25:23;;;;;;;34.85;15.45;;;-1.10;99.90;;;;;;5021599;28;20525;-70
2021/12/23 05:27:54;;;;;;;37.10;14.30;;;-1.10;99.90;;;;;;5023409;28;20444;-70
2021/12/23 05:30:21;;;;;;;30.65;13.95;;;-1.10;99.90;;;;;;5022009;28;20483;-70
2021/12/23 05:32:48;;;;;;;39.13;16.15;;;-1.10;99.90;;;;;;5027078;28;20029;-70
2021/12/23 05:35:16;;;;;;;30.33;14.27;;;-1.10;99.90;;;;;;5028012;28;20497;-70
2021/12/23 05:37:42;;;;;;;31.58;14.88;;;-1.10;99.90;;;;;;5027312;28;20042;-70
2021/12/23 05:40:10;;;;;;;32.08;14.85;;;-1.00;99.90;;;;;;5027542;28;20031;-70
2021/12/23 05:42:36;;;;;;;33.60;13.38;;;-1.10;99.90;;;;;;5023694;28;20091;-70
2021/12/23 05:45:03;;;;;;;32.95;14.20;;;-1.00;99.90;;;;;;5027374;28;20025;-70
2021/12/23 05:47:28;;;;;;;30.10;14.55;;;-1.00;99.90;;;;;;5030299;28;20356;-70
2021/12/23 05:49:54;;;;;;;34.08;14.90;;;-1.00;99.90;;;;;;5031411;28;20099;-70
2021/12/23 05:52:20;;;;;;;35.17;15.07;;;-1.00;99.90;;;;;;5030180;28;20030;-70
2021/12/23 05:54:45;;;;;;;33.33;14.18;;;-1.00;99.90;;;;;;5029304;28;20409;-71
2021/12/23 05:57:11;;;;;;;38.70;15.52;;;-1.00;99.90;;;;;;5024940;28;20072;-69
2021/12/23 05:59:37;;;;;;;35.25;14.77;;;-0.90;99.90;;;;;;5028137;28;20124;-70
2021/12/23 06:02:05;;;;;;;34.03;14.50;;;-0.90;99.90;;;;;;5025149;28;20026;-70
2021/12/23 06:04:32;;;;;;;33.40;15.05;;;-0.90;99.90;;;;;;5032007;28;20056;-70
2021/12/23 06:06:58;;;;;;;34.58;14.63;;;-0.90;99.90;;;;;;5030666;28;20095;-71
2021/12/23 06:09:23;;;;;;;31.20;15.20;;;-0.90;99.90;;;;;;5030481;28;20025;-69
2021/12/23 06:11:49;;;;;;;31.75;14.85;;;-0.90;99.90;;;;;;5023148;28;20104;-71
2021/12/23 06:14:16;;;;;;;29.95;14.23;;;-0.90;99.90;;;;;;5027760;28;20037;-70
2021/12/23 06:16:42;;;;;;;34.58;15.02;;;-0.90;99.90;;;;;;5030476;28;20036;-70
2021/12/23 06:19:08;;;;;;;35.28;15.55;;;-0.90;99.90;;;;;;5030597;28;20032;-70
2021/12/23 06:21:33;;;;;;;31.48;14.48;;;-0.90;99.90;;;;;;5020653;28;20029;-70
2021/12/23 06:24:02;;;;;;;34.25;16.95;;;-0.90;99.90;;;;;;5006095;28;20120;-70
2021/12/23 06:26:28;;;;;;;30.05;13.80;;;-0.90;99.90;;;;;;5021915;28;20022;-70
2021/12/23 06:28:53;;;;;;;33.03;15.02;;;-0.90;99.90;;;;;;5021290;28;20083;-70
2021/12/23 06:31:19;;;;;;;30.65;15.15;;;-0.90;99.90;;;;;;5022810;28;20030;-71
2021/12/23 06:33:45;;;;;;;31.58;14.80;;;-0.90;99.90;;;;;;5022528;28;20502;-71
2021/12/23 06:36:13;;;;;;;33.42;15.15;;;-0.90;99.90;;;;;;5021028;28;20038;-70
2021/12/23 06:38:40;;;;;;;33.88;15.68;;;-0.90;99.90;;;;;;5021739;28;20112;-70
2021/12/23 06:41:06;;;;;;;35.30;15.30;;;-0.90;99.90;;;;;;5021618;28;20137;-69
2021/12/23 06:43:31;;;;;;;36.70;15.48;;;-0.90;99.90;;;;;;5021071;28;20041;-71
2021/12/23 06:45:57;;;;;;;32.58;15.35;;;-0.90;99.90;;;;;;5020518;28;20079;-71
2021/12/23 06:48:22;;;;;;;33.70;16.10;;;-0.90;99.90;;;;;;5020522;28;20116;-70
2021/12/23 06:50:54;;;;;;;37.20;15.27;;;-0.90;99.90;;;;;;5021815;28;20392;-70
2021/12/23 06:53:19;;;;;;;;;;;-0.90;99.90;;;;;;5021212;28;20589;-71
2021/12/23 06:55:45;;;;;;;39.25;15.75;;;-0.80;99.90;;;;;;5017899;28;19913;-70
2021/12/23 06:58:11;;;;;;;37.65;16.60;;;-0.90;99.90;;;;;;5026976;28;20086;-70
2021/12/23 07:00:36;;;;;;;34.95;16.15;;;-0.80;99.90;;;;;;5024748;28;20034;-70
2021/12/23 07:03:03;;;;;;;32.47;15.75;;;-0.90;99.90;;;;;;5021947;28;20025;-70
2021/12/23 07:05:29;;;;;;;33.92;14.88;;;-0.90;99.90;;;;;;5025040;28;20022;-71
2021/12/23 07:10:28;;;;;;;39.65;16.45;;;-0.90;99.90;;;;;;5026410;28;20026;-70
2021/12/23 07:12:55;;;;;;;33.53;15.43;;;-0.90;99.90;;;;;;5025438;28;20053;-71
2021/12/23 07:15:23;;;;;;;32.15;15.18;;;-0.90;99.90;;;;;;5025652;28;20104;-71
2021/12/23 07:17:49;;;;;;;31.30;15.90;;;-0.90;99.90;;;;;;5022984;28;20021;-71
2021/12/23 07:20:15;;;;;;;35.38;15.13;;;-0.90;99.90;;;;;;5022973;28;20407;-71
2021/12/23 07:22:41;;;;;;;32.80;15.35;;;-0.90;99.90;;;;;;5019246;28;20430;-71
2021/12/23 07:25:07;;;;;;;35.72;15.35;;;-0.90;99.90;;;;;;5002587;28;20030;-71
2021/12/23 07:27:33;;;;;;;33.15;15.40;;;-0.90;99.90;;;;;;5020736;28;20395;-71
2021/12/23 07:29:59;;;;;;;36.45;16.90;;;-0.90;99.90;;;;;;5024331;28;20026;-71
2021/12/23 07:32:25;;;;;;;32.92;14.68;;;-0.90;99.90;;;;;;5020771;28;20044;-70
2021/12/23 07:34:50;;;;;;;37.88;15.50;;;-0.90;99.90;;;;;;5020711;28;20407;-71
2021/12/23 07:37:16;;;;;;;34.10;15.93;;;-0.90;99.90;;;;;;5022130;28;20112;-70
2021/12/23 07:39:42;;;;;;;34.60;16.05;;;-0.90;99.90;;;;;;5023216;28;20037;-71
2021/12/23 07:42:14;;;;;;;36.28;16.65;;;-0.90;99.90;;;;;;5020916;28;20395;-70
2021/12/23 07:44:40;;;;;;;35.10;15.60;;;-0.90;99.90;;;;;;5023606;28;20503;-71
2021/12/23 07:47:06;;;;;;;31.98;14.48;;;-0.90;99.90;;;;;;5025249;28;20049;-72
2021/12/23 07:49:31;;;;;;;29.70;15.30;;;-0.90;99.90;;;;;;5018387;28;20495;-71
2021/12/23 07:51:57;;;;;;;38.58;16.90;;;-0.90;99.90;;;;;;5020549;28;20044;-70
2021/12/23 07:54:23;;;;;;;31.90;15.70;;;-1.00;99.90;;;;;;5019173;28;20029;-71
2021/12/23 07:56:48;;;;;;;35.38;16.35;;;-0.90;99.90;;;;;;5019292;28;20037;-72
2021/12/23 07:59:14;;;;;;;34.05;15.80;;;-0.90;99.90;;;;;;5018604;28;20029;-77
2021/12/23 08:01:40;;;;;;;34.42;16.42;;;-0.90;99.90;;;;;;5023899;28;20057;-78
2021/12/23 08:04:06;;;;;;;35.45;16.63;;;-0.90;99.90;;;;;;5023590;28;20494;-76
2021/12/23 08:06:32;;;;;;;34.00;15.15;;;-0.90;99.90;;;;;;5026597;28;20063;-76
2021/12/23 08:08:57;;;;;;;31.80;14.52;;;-0.80;99.90;;;;;;5030234;28;20975;-78
2021/12/23 08:11:23;;;;;;;29.10;14.85;;;-0.80;99.90;;;;;;5027884;28;20036;-76
2021/12/23 08:13:49;;;;;;;29.98;15.20;;;-0.80;99.90;;;;;;5026510;28;20088;-77
2021/12/23 08:16:15;;;;;;;30.48;13.60;;;-0.80;99.90;;;;;;5008126;28;20040;-77
2021/12/23 08:18:43;;;;;;;33.25;15.60;;;-0.70;99.90;;;;;;5023888;28;20082;-75
2021/12/23 08:21:09;;;;;;;32.55;15.52;;;-0.60;99.90;;;;;;5028275;28;20025;-79
2021/12/23 08:23:35;;;;;;;29.58;14.20;;;-0.60;99.90;;;;;;5034819;28;20044;-79
2021/12/23 08:26:04;;;;;;;26.13;14.02;;;-0.60;99.90;;;;;;5016650;28;20514;-80
2021/12/23 08:28:31;;;;;;;28.63;14.23;;;-0.50;99.90;;;;;;5026865;28;20452;-78
2021/12/23 08:30:58;;;;;;;30.55;14.13;;;-0.60;99.90;;;;;;5032998;28;20029;-78
2021/12/23 08:33:24;;;;;;;28.58;13.40;;;-0.50;99.90;;;;;;5034303;28;20033;-77
2021/12/23 08:35:50;;;;;;;30.90;15.40;;;-0.50;99.90;;;;;;5025933;28;20395;-75
2021/12/23 08:38:16;;;;;;;28.08;14.30;;;-0.40;99.90;;;;;;5027397;28;20025;-77
2021/12/23 08:40:41;;;;;;;29.75;14.75;;;-0.40;99.90;;;;;;5027230;28;20386;-78
2021/12/23 08:43:07;;;;;;;32.53;15.55;;;-0.40;99.90;;;;;;5029004;28;20036;-79
2021/12/23 08:45:34;;;;;;;29.30;14.55;;;-0.40;99.90;;;;;;5032581;28;20039;-78
2021/12/23 08:48:02;;;;;;;29.67;15.02;;;-0.30;99.90;;;;;;5028804;28;20033;-77
2021/12/23 08:50:30;;;;;;;30.88;14.48;;;-0.20;99.90;;;;;;5029728;28;20035;-77
2021/12/23 08:52:57;;;;;;;25.90;13.85;;;-0.20;99.90;;;;;;5025122;28;20025;-79
2021/12/23 08:55:27;;;;;;;31.58;15.05;;;-0.20;99.90;;;;;;5025293;28;20014;-77
2021/12/23 08:57:53;;;;;;;28.23;14.82;;;-0.10;99.90;;;;;;5029494;28;20030;-78
2021/12/23 09:00:20;;;;;;;27.70;14.27;;;-0.10;99.90;;;;;;5031846;28;20059;-75
2021/12/23 09:02:48;;;;;;;31.17;15.02;;;-0.10;99.90;;;;;;5041235;28;20029;-75
2021/12/23 09:05:15;;;;;;;31.52;14.27;;;-0.10;99.90;;;;;;5026193;28;20029;-73
2021/12/23 09:07:40;;;;;;;27.98;14.65;;;0.00;99.90;;;;;;5025427;28;20025;-71
2021/12/23 09:10:08;;;;;;;28.85;14.23;;;0.00;99.90;;;;;;5023525;28;20025;-70
2021/12/23 09:12:34;;;;;;;27.85;13.70;;;0.00;99.90;;;;;;5030476;28;20021;-70
2021/12/23 09:15:00;;;;;;;32.92;15.50;;;0.10;99.90;;;;;;5020438;28;20022;-72
2021/12/23 09:17:26;;;;;;;28.73;14.43;;;0.10;99.90;;;;;;5022310;28;20032;-72
2021/12/23 09:19:51;;;;;;;28.73;14.75;;;0.20;99.90;;;;;;5025777;28;20109;-73
2021/12/23 09:22:17;;;;;;;28.08;13.88;;;0.10;99.90;;;;;;5024048;28;20106;-73
2021/12/23 09:24:46;;;;;;;27.77;13.38;;;0.10;99.90;;;;;;5026351;28;20029;-73
2021/12/23 09:27:31;;;;;;;29.70;14.45;;;0.10;99.90;;;;;;5022772;28;20104;-75
2021/12/23 09:32:53;;;;;;;29.15;14.63;;;0.20;99.90;;;;;;5024594;28;20156;-74
2021/12/23 09:35:25;;;;;;;26.88;14.00;;;0.20;99.90;;;;;;5017625;28;20057;-74
2021/12/23 09:37:51;;;;;;;29.75;14.18;;;0.30;99.90;;;;;;5022692;28;20022;-74
2021/12/23 09:40:19;;;;;;;29.05;14.43;;;0.30;99.90;;;;;;5018376;28;20049;-75
2021/12/23 09:42:46;;;;;;;31.13;15.52;;;0.30;99.90;;;;;;5022158;28;20045;-73
2021/12/23 09:45:17;;;;;;;32.70;16.35;;;0.40;99.90;;;;;;5022272;28;20034;-75
2021/12/23 09:47:45;;;;;;;30.30;14.77;;;0.30;99.90;;;;;;5020364;28;20033;-74
2021/12/23 09:50:14;;;;;;;29.77;14.77;;;0.40;99.90;;;;;;5041395;28;20553;-75
2021/12/23 09:52:46;;;;;;;28.17;13.07;;;0.30;99.90;;;;;;5021202;28;20048;-74
2021/12/23 09:55:14;;;;;;;28.23;14.48;;;0.40;99.90;;;;;;5021917;28;20394;-73
2021/12/23 09:57:40;;;;;;;30.20;16.00;;;0.40;99.90;;;;;;5019535;28;20387;-73
2021/12/23 10:00:11;;;;;;;31.13;15.65;;;0.40;99.90;;;;;;5016898;28;20113;-75
2021/12/23 10:02:40;;;;;;;29.27;14.77;;;0.40;99.90;;;;;;5020591;28;20014;-73
2021/12/23 10:05:13;;;;;;;34.53;16.23;;;0.40;99.90;;;;;;5025079;28;20036;-72
2021/12/23 10:07:40;;;;;;;28.80;14.60;;;0.40;99.90;;;;;;5024428;28;20022;-72
2021/12/23 10:10:18;;;;;;;27.58;14.13;;;0.50;99.90;;;;;;5024226;28;20044;-74
2021/12/23 10:38:08;;;;;;;28.48;14.27;;;0.60;99.90;;;;;;5049586;28;20024;-70
2021/12/23 10:40:36;;;;;;;27.60;14.55;;;0.60;99.90;;;;;;5047962;28;20028;-73
2021/12/23 10:43:02;;;;;;;30.38;15.00;;;0.60;99.90;;;;;;5050054;28;20037;-70
2021/12/23 10:45:50;;;;;;;27.73;14.18;;;0.50;99.90;;;;;;5052426;28;20029;-70
2021/12/23 10:48:16;;;;;;;30.42;15.23;;;0.50;99.90;;;;;;5045616;28;20061;-73
2021/12/23 10:59:24;;;;;;;30.45;15.05;;;0.50;99.90;;;;;;5040529;28;20029;-72
2021/12/23 11:02:26;;;;;;;31.05;15.20;;;0.50;99.90;;;;;;5045595;28;20460;-73
2021/12/23 11:05:03;;;;;;;34.33;16.17;;;0.50;99.90;;;;;;5046249;28;20094;-74
2021/12/23 11:07:47;;;;;;;29.08;15.70;;;0.50;99.90;;;;;;5051788;28;20025;-73
2021/12/23 11:10:19;;;;;;;30.45;15.20;;;0.60;99.90;;;;;;5041385;28;20036;-76
2021/12/23 11:37:55;;;;;;;30.77;15.32;;;0.90;99.90;;;;;;5013938;28;20045;-70
2021/12/23 11:45:33;;;;;;;31.50;15.88;;;0.90;99.90;;;;;;5048006;28;20581;-71
2021/12/23 11:47:58;;;;;;;32.53;16.13;;;1.00;99.90;;;;;;5044462;28;20122;-70
2021/12/23 11:50:31;;;;;;;29.80;15.65;;;1.00;99.90;;;;;;5047134;28;20489;-71
2021/12/23 11:52:58;;;;;;;30.58;15.75;;;1.00;99.90;;;;;;5041801;28;20036;-71
2021/12/23 11:55:23;;;;;;;27.10;14.38;;;1.20;99.90;;;;;;5024423;28;20474;-72
2021/12/23 11:57:51;;;;;;;26.20;14.38;;;1.40;99.90;;;;;;5047862;28;20322;-71
2021/12/23 12:00:21;;;;;;;27.08;14.27;;;1.40;99.90;;;;;;5041942;28;20109;-70
2021/12/23 12:03:04;;;;;;;31.40;15.75;;;1.40;99.90;;;;;;5035183;28;20123;-70
2021/12/23 12:05:32;;;;;;;27.38;14.43;;;1.60;99.90;;;;;;5037745;28;20028;-70
2021/12/23 12:08:13;;;;;;;28.42;15.48;;;1.50;99.90;;;;;;5036891;28;20025;-70
2021/12/23 12:10:41;;;;;;;26.98;14.57;;;1.50;99.90;;;;;;5036093;28;20197;-71
2021/12/23 12:13:09;;;;;;;28.13;14.43;;;1.50;99.90;;;;;;5034368;28;20037;-71
2021/12/23 12:15:38;;;;;;;27.42;15.43;;;1.40;99.90;;;;;;5035289;28;20122;-71
2021/12/23 12:18:05;;;;;;;29.70;14.57;;;1.40;99.90;;;;;;5041418;28;20021;-71
2021/12/23 12:20:37;;;;;;;23.90;13.88;;;1.50;99.90;;;;;;5041969;28;20021;-72
2021/12/23 12:23:13;;;;;;;28.75;14.75;;;1.40;99.90;;;;;;5037618;28;20029;-72
2021/12/23 12:25:40;;;;;;;27.60;14.77;;;1.50;99.90;;;;;;5036681;28;20115;-72
2021/12/23 12:28:09;;;;;;;26.15;14.38;;;1.40;99.90;;;;;;5036441;28;20024;-73
2021/12/23 12:30:40;;;;;;;27.95;14.38;;;1.40;99.90;;;;;;5036098;28;20100;-72
2021/12/23 12:33:12;;;;;;;;;;;1.40;99.90;;;;;;5037719;28;20520;-74
2021/12/23 12:35:41;;;;;;;27.70;14.60;;;1.40;99.90;;;;;;5031926;28;20367;-74
2021/12/23 12:38:22;;;;;;;29.85;15.52;;;1.40;99.90;;;;;;5040120;28;20071;-75
2021/12/23 12:40:53;;;;;;;;;;;1.30;99.90;;;;;;5048835;28;20025;-76
2021/12/23 12:43:31;;;;;;;;;;;1.30;99.90;;;;;;5046205;28;19916;-74
2021/12/23 12:45:56;;;;;;;27.45;14.85;;;1.30;99.90;;;;;;5037830;28;19909;-74
2021/12/23 12:48:42;;;;;;;30.98;15.73;;;1.40;99.90;;;;;;5043378;28;20018;-76
2021/12/23 12:51:20;;;;;;;31.85;16.55;;;1.40;99.90;;;;;;5043746;28;20052;-76
2021/12/23 12:53:56;;;;;;;27.42;15.07;;;1.40;99.90;;;;;;5042968;28;20025;-73
2021/12/23 12:56:26;;;;;;;29.40;15.35;;;1.40;99.90;;;;;;5046573;28;20066;-74
2021/12/23 12:58:54;;;;;;;30.90;15.27;;;1.40;99.90;;;;;;5042002;28;20033;-75
2021/12/23 13:01:38;;;;;;;30.80;16.65;;;1.30;99.90;;;;;;5041336;28;20064;-81
2021/12/23 13:04:06;;;;;;;28.80;15.50;;;1.20;99.90;;;;;;5043621;28;20038;-74
2021/12/23 13:06:40;;;;;;;30.90;16.08;;;1.20;99.90;;;;;;5050524;28;20393;-74
2021/12/23 13:09:12;;;;;;;28.92;15.40;;;1.20;99.90;;;;;;5044884;28;20025;-76
2021/12/23 13:11:43;;;;;;;31.73;16.90;;;1.10;99.90;;;;;;5049232;28;20603;-76
2021/12/23 13:14:18;;;;;;;32.58;17.05;;;1.10;99.90;;;;;;5041271;28;20037;-74
2021/12/23 13:16:58;;;;;;;29.95;16.73;;;1.00;99.90;;;;;;5041758;28;20033;-76
2021/12/23 13:19:31;;;;;;;52.35;25.65;;;1.00;99.90;;;;;;5047644;28;20025;-75
2021/12/23 13:21:58;;;;;;;92.60;40.25;;;1.20;99.90;;;;;;5048646;28;20035;-75
2021/12/23 13:24:27;;;;;;;42.63;22.23;;;1.50;99.90;;;;;;5039383;28;20127;-74
2021/12/23 13:26:56;;;;;;;32.80;17.90;;;1.60;99.90;;;;;;5045207;28;20389;-74
2021/12/23 13:29:27;;;;;;;31.90;16.65;;;1.60;99.90;;;;;;5049553;28;20056;-75
2021/12/23 13:31:53;;;;;;;;;;;1.60;99.90;;;;;;5043029;28;20029;-75
2021/12/23 13:34:21;;;;;;;33.45;16.83;;;1.30;99.90;;;;;;5044988;28;19970;-75
2021/12/23 13:36:53;;;;;;;31.25;16.55;;;1.30;99.90;;;;;;5047116;28;20039;-73
2021/12/23 13:39:27;;;;;;;34.05;18.95;;;1.10;99.90;;;;;;5042450;28;20029;-75
2021/12/23 13:41:57;;;;;;;39.55;19.63;;;1.10;99.90;;;;;;5042978;28;20147;-74
2021/12/23 13:44:39;;;;;;;34.88;19.05;;;1.10;99.90;;;;;;5052225;28;20026;-74
2021/12/23 13:47:07;;;;;;;;;;;1.00;99.90;;;;;;5041106;28;20075;-74
2021/12/23 13:49:47;;;;;;;40.90;20.50;;;1.00;99.90;;;;;;5041357;28;19942;-74